Hauptseite
METAR-TAF:

METAR-TAF

Flughäfen :

Nouakchott, Mauretanien

Flughafen Nouakchott-Oumtounsy

Breite: 18-18-36N, Länge: 015-58-11W, Höhe: 3 m

Beobachtung

Neuester Wetterbericht von vor 22 Minuten, um 05:00 UTC
Wind 9 kt aus Nord/Nordwest
Temperatur 19°C
Luftfeuchtigkeit 83%
Luftdruck 1013 hPa
Sichtweite: 7000 m

METAR: GQNO 260500Z 33009KT 7000 NSC 19/16 Q1013 NOSIG

Zeit: 05:22 (05:22 UTC)

Prognose

Neuester Wetterbericht von vor 6 Stunden und 22 Minuten, um 23:00 UTC
Gültige Prognose vom 26 um 00 UTC bis 27 um 06 UTC
Wind 10 kt aus Nord
Sichtweite: 7000 m

TAF: GQNO 252300Z 2600/2706 36010KT 7000 NSC

Wetterbeobachtungen und Prognosen von mehr als 4000 Flughäfen (METAR und TAF Bericht).

Die verfügbaren Stationen werden durch gelbe und rote Markierungen auf der Karte dargestellt.

Führen Sie die Maus auf sie, um den Namen der Station zu sehen.

Darauf klicken, um die Beobachtung von Wetterbeobachtungen und Prognosen zu sehen.

Um die Karte zu ändern : klicken Sie auf den grünen Tasten mit einem schwarzen Kreuz Zum Vergrößern, auf den grünen Button mit einem Gedankenstrich zu verkleinern, oder auf die grünen Pfeile für benachbarte Karten.


METAR-TAF: